Главная страница
METAR-TAF:

METAR-TAF

Аэропорты :

Lancaster Airport

Ланкастер, Пенсильвания, США

широта: 40-07-13N, долгота: 076-17-40W, высота над уровнем моря: 123 м

Текущие метеонаблюдения

Эта сводка был подготовлена 17 минут назад, в 16:53 UTC
Ветер 5 Узел от южный-юго-западный
Температура 23°C
Влажность 23%
Давление 1024 hPa
Видимость: 16.1 км
Отдельные облака на высоте 8000 фута

METAR: KLNS 141653Z 20005KT 10SM SCT080 23/01 A3025 RMK AO2 SLP241 T02280006

Время: 13:10 (17:10 UTC)

Прогноз

Эта сводка был подготовлена 3 часа и 19 минут назад, в 13:51 UTC
Прогноз действительный с 14-го 14 UTC до 15-го 12 UTC
Ветер Узел от северный
Видимость: 10 км
ясное небо
С 15-го 0000 UTC
Ветер Узел от северный
Видимость: 10 км
ясное небо

TAF: KLNS 141351Z 1414/1512 00000KT P6SM SKC FM150000 00000KT P6SM SKC

Метеонаблюдения и прогнозы для более 4000 аэропортов (сводки METAR и TAF).

Имеющиеся станции представлены на карте желтыми и красными точками.

Чтобы увидеть название станции, наведите на нее мышь.

Затем щелкните, чтобы увидеть метеонаблюдения и метеопрогнозы.

Управление картой: чтобы увеличить масштаб, щелкните зеленые кнопки с черным крестиком; чтобы уменьшить масштаб, щелкните зеленую кнопку с тире; для просмотра соседних карт щелкайте зеленые стрелки.


METAR-TAF: